Time;durP1;ratioP1;P1;durP2;ratioP2;P2;SDS_P1;SDS_P2;PMS_P1;PMS_P2;Temp;Humidity;BMP_temperature;BMP_pressure;BME280_temperature;BME280_humidity;BME280_pressure;Samples;Min_cycle;Max_cycle;Signal;HPM_P1;HPM_P2
2021/10/20 00:01:39;;;;;;;15.48;8.57;;;;;;;4.68;100.00;97173.41;5002997;28;20124;-60
2021/10/20 00:04:05;;;;;;;15.02;7.10;;;;;;;4.78;100.00;97175.03;4997623;28;20144;-59
2021/10/20 00:06:31;;;;;;;13.38;7.20;;;;;;;4.73;100.00;97172.47;4999389;28;20053;-60
2021/10/20 00:08:57;;;;;;;10.63;6.93;;;;;;;4.69;100.00;97175.00;5000892;28;20060;-60
2021/10/20 00:11:23;;;;;;;9.98;5.80;;;;;;;4.75;100.00;97179.19;4996608;28;20610;-60
2021/10/20 00:13:49;;;;;;;9.82;6.20;;;;;;;4.67;100.00;97179.94;5016437;28;20397;-59
2021/10/20 00:16:15;;;;;;;11.35;5.80;;;;;;;4.60;100.00;97174.97;5036604;28;20041;-60
2021/10/20 00:18:46;;;;;;;9.55;6.13;;;;;;;4.56;100.00;97168.59;5022449;28;20370;-61
2021/10/20 00:21:13;;;;;;;10.30;6.63;;;;;;;4.45;100.00;97175.44;5016778;28;20041;-61
2021/10/20 00:23:38;;;;;;;12.43;6.60;;;;;;;4.38;100.00;97158.81;5022333;28;20482;-61
2021/10/20 00:26:03;;;;;;;8.43;5.53;;;;;;;4.40;100.00;97168.22;4999263;28;20060;-60
2021/10/20 00:28:29;;;;;;;8.80;5.38;;;;;;;4.43;100.00;97168.72;5020026;28;20667;-61
2021/10/20 00:30:54;;;;;;;9.15;5.30;;;;;;;4.62;100.00;97166.53;5021105;28;20129;-61
2021/10/20 00:33:20;;;;;;;9.68;5.22;;;;;;;4.69;100.00;97160.66;5013963;28;20490;-64
2021/10/20 00:35:45;;;;;;;11.18;6.40;;;;;;;4.75;100.00;97159.38;5020638;28;20046;-62
2021/10/20 00:38:11;;;;;;;10.57;5.57;;;;;;;4.66;100.00;97166.69;4996213;28;20041;-61
2021/10/20 00:40:36;;;;;;;8.80;5.10;;;;;;;4.74;100.00;97157.78;5023125;28;20041;-62
2021/10/20 00:43:02;;;;;;;7.43;4.88;;;;;;;4.83;100.00;97155.88;5042812;28;20048;-61
2021/10/20 00:45:27;;;;;;;6.15;4.38;;;;;;;4.92;100.00;97150.47;5039524;28;20057;-62
2021/10/20 00:47:53;;;;;;;9.55;5.18;;;;;;;4.95;100.00;97144.38;5041815;28;20056;-61
2021/10/20 00:50:18;;;;;;;8.82;4.63;;;;;;;4.94;100.00;97145.50;5016099;28;20049;-60
2021/10/20 00:52:44;;;;;;;7.50;4.28;;;;;;;4.91;100.00;97133.34;5041131;28;20102;-62
2021/10/20 00:55:11;;;;;;;10.23;5.38;;;;;;;4.70;100.00;97141.34;5034487;28;20037;-62
2021/10/20 00:57:40;;;;;;;6.53;4.22;;;;;;;4.71;100.00;97137.50;5040248;28;20101;-61
2021/10/20 01:00:09;;;;;;;7.73;5.00;;;;;;;4.90;100.00;97128.28;5035324;28;20045;-62
2021/10/20 01:02:37;;;;;;;10.63;5.07;;;;;;;4.91;100.00;97119.00;5040392;28;20338;-61
2021/10/20 01:05:04;;;;;;;6.72;4.53;;;;;;;4.86;100.00;97111.00;5037847;28;20033;-60
2021/10/20 01:07:29;;;;;;;9.73;4.90;;;;;;;4.72;100.00;97111.19;5023758;28;20048;-61
2021/10/20 01:09:55;;;;;;;7.95;4.97;;;;;;;4.70;100.00;97111.50;5040696;28;20084;-61
2021/10/20 01:12:21;;;;;;;9.52;4.93;;;;;;;4.55;100.00;97109.22;5034829;28;20097;-61
2021/10/20 01:14:46;;;;;;;9.00;5.25;;;;;;;4.67;100.00;97103.19;5040526;28;20645;-60
2021/10/20 01:17:12;;;;;;;7.20;4.60;;;;;;;4.78;100.00;97104.47;5027843;28;20037;-61
2021/10/20 01:19:41;;;;;;;10.55;5.22;;;;;;;4.94;100.00;97099.38;4998754;28;20056;-60
2021/10/20 01:22:08;;;;;;;7.15;4.70;;;;;;;4.84;100.00;97095.03;4995816;28;20045;-60
2021/10/20 01:24:34;;;;;;;7.35;5.15;;;;;;;4.70;100.00;97088.97;5018678;28;20512;-61
2021/10/20 01:26:59;;;;;;;8.38;5.18;;;;;;;4.68;100.00;97083.88;5020315;28;20053;-61
2021/10/20 01:29:25;;;;;;;6.07;4.28;;;;;;;4.69;100.00;97082.75;5014807;28;20458;-62
2021/10/20 01:31:53;;;;;;;7.38;4.18;;;;;;;4.75;100.00;97083.38;5024316;28;20132;-61
2021/10/20 01:34:20;;;;;;;9.63;4.65;;;;;;;4.79;100.00;97076.22;5014467;28;20038;-62
2021/10/20 01:36:48;;;;;;;7.13;5.05;;;;;;;4.77;100.00;97081.97;5018127;28;20052;-61
2021/10/20 01:39:15;;;;;;;8.90;4.75;;;;;;;4.71;100.00;97075.09;5012647;28;20049;-61
2021/10/20 01:41:41;;;;;;;9.25;4.78;;;;;;;4.73;100.00;97070.13;5013811;28;20406;-60
2021/10/20 01:44:06;;;;;;;8.73;4.90;;;;;;;4.85;100.00;97064.06;5015696;28;20049;-61
2021/10/20 01:46:33;;;;;;;13.35;5.53;;;;;;;4.84;100.00;97065.19;5017855;28;20100;-60
2021/10/20 01:48:59;;;;;;;5.68;3.90;;;;;;;4.80;100.00;97056.09;5019699;28;20042;-59
2021/10/20 01:51:25;;;;;;;8.68;4.82;;;;;;;4.54;100.00;97050.69;5010894;28;20503;-61
2021/10/20 01:53:51;;;;;;;11.88;4.88;;;;;;;4.37;100.00;97062.28;5019687;28;20057;-63
2021/10/20 01:56:17;;;;;;;6.95;4.70;;;;;;;4.30;100.00;97054.63;5015037;28;20544;-62
2021/10/20 01:58:43;;;;;;;9.10;4.70;;;;;;;4.31;100.00;97052.72;5019271;28;20041;-60
2021/10/20 02:01:08;;;;;;;7.97;4.28;;;;;;;4.27;100.00;97049.03;4990989;28;20100;-59
2021/10/20 02:03:38;;;;;;;7.72;4.70;;;;;;;4.41;100.00;97041.56;5017033;28;20045;-61
2021/10/20 02:06:05;;;;;;;12.75;4.45;;;;;;;4.48;100.00;97043.81;5015346;28;20053;-60
2021/10/20 02:08:31;;;;;;;9.98;4.70;;;;;;;4.49;100.00;97040.78;5016496;28;20783;-61
2021/10/20 02:10:57;;;;;;;7.05;4.60;;;;;;;4.52;100.00;97039.31;5019350;28;20083;-60
2021/10/20 02:13:22;;;;;;;6.03;4.25;;;;;;;4.47;100.00;97047.66;5013761;28;20597;-62
2021/10/20 02:15:48;;;;;;;10.93;4.72;;;;;;;4.51;100.00;97035.81;5018847;28;20042;-60
2021/10/20 02:18:14;;;;;;;6.50;4.20;;;;;;;4.62;100.00;97035.50;5014088;28;20112;-61
2021/10/20 02:20:39;;;;;;;7.05;4.80;;;;;;;4.63;100.00;97026.25;5019347;28;20052;-61
2021/10/20 02:23:04;;;;;;;7.32;4.45;;;;;;;4.54;100.00;97018.13;5010920;28;20045;-59
2021/10/20 02:25:30;;;;;;;6.85;4.38;;;;;;;4.05;100.00;97018.22;5017826;28;20052;-61
2021/10/20 02:27:55;;;;;;;7.72;4.57;;;;;;;4.05;100.00;97010.09;5018740;28;20037;-61
2021/10/20 02:30:21;;;;;;;9.50;5.20;;;;;;;4.21;100.00;97013.97;5014331;28;20405;-61
2021/10/20 02:32:47;;;;;;;6.03;4.15;;;;;;;4.28;100.00;97007.25;5010444;28;20091;-62
2021/10/20 02:35:14;;;;;;;6.43;3.92;;;;;;;4.20;100.00;97006.13;5011623;28;20060;-62
2021/10/20 02:37:39;;;;;;;6.75;4.53;;;;;;;3.99;100.00;97000.53;5016671;28;20053;-60
2021/10/20 02:40:07;;;;;;;11.77;5.13;;;;;;;3.90;100.00;96997.00;5012070;28;20100;-61
2021/10/20 02:42:32;;;;;;;8.50;4.70;;;;;;;4.08;100.00;96995.91;5008261;28;20048;-61
2021/10/20 02:44:58;;;;;;;9.23;4.82;;;;;;;4.21;100.00;96991.44;5017902;28;20124;-63
2021/10/20 02:47:23;;;;;;;10.57;6.00;;;;;;;4.22;100.00;96990.34;5021897;28;20045;-63
2021/10/20 02:49:49;;;;;;;6.90;4.57;;;;;;;4.13;100.00;96986.84;5022891;28;20092;-61
2021/10/20 02:52:14;;;;;;;7.82;5.32;;;;;;;4.05;100.00;96984.91;5017863;28;20045;-63
2021/10/20 02:54:40;;;;;;;7.95;5.00;;;;;;;4.07;100.00;96982.66;5023093;28;20045;-61
2021/10/20 02:57:05;;;;;;;8.98;5.07;;;;;;;4.27;100.00;96973.09;5017571;28;20064;-61
2021/10/20 02:59:31;;;;;;;9.57;5.13;;;;;;;4.33;100.00;96980.00;5022031;28;20034;-63
2021/10/20 03:01:56;;;;;;;7.20;4.82;;;;;;;4.37;100.00;96972.81;5018834;28;20065;-62
2021/10/20 03:04:22;;;;;;;7.55;4.78;;;;;;;4.43;100.00;96965.28;5017246;28;20142;-63
2021/10/20 03:06:47;;;;;;;6.95;4.40;;;;;;;4.58;100.00;96962.91;5021507;28;20029;-62
2021/10/20 03:09:13;;;;;;;11.02;7.00;;;;;;;4.68;100.00;96959.06;5020895;28;20501;-62
2021/10/20 03:11:38;;;;;;;12.05;7.40;;;;;;;4.80;100.00;96961.09;5023081;28;20038;-63
2021/10/20 03:14:04;;;;;;;12.50;6.22;;;;;;;4.86;100.00;96965.25;4999581;28;20046;-62
2021/10/20 03:16:29;;;;;;;9.27;5.97;;;;;;;4.92;100.00;96963.97;5020286;28;20038;-63
2021/10/20 03:18:55;;;;;;;8.43;5.03;;;;;;;4.89;100.00;96963.81;5022124;28;20049;-62
2021/10/20 03:21:20;;;;;;;7.45;4.10;;;;;;;4.91;100.00;96956.13;5017547;28;20044;-61
2021/10/20 03:23:46;;;;;;;7.18;4.57;;;;;;;4.93;100.00;96952.00;5026605;28;20080;-61
2021/10/20 03:26:12;;;;;;;7.22;5.18;;;;;;;4.92;100.00;96949.59;5024451;28;20041;-61
2021/10/20 03:28:38;;;;;;;5.90;3.95;;;;;;;4.86;100.00;96948.97;5033531;28;20045;-60
2021/10/20 03:31:04;;;;;;;7.20;4.72;;;;;;;4.72;100.00;96948.38;5020075;28;20056;-60
2021/10/20 03:33:29;;;;;;;5.30;3.75;;;;;;;4.59;100.00;96936.56;5019309;28;20037;-60
2021/10/20 03:35:55;;;;;;;12.50;5.32;;;;;;;4.50;100.00;96939.31;5022239;28;20041;-62
2021/10/20 03:38:20;;;;;;;17.45;5.50;;;;;;;4.43;100.00;96935.47;5016170;28;20064;-62
2021/10/20 03:40:46;;;;;;;17.88;5.45;;;;;;;4.35;100.00;96931.66;5019372;28;20449;-62
2021/10/20 03:43:11;;;;;;;11.55;5.40;;;;;;;4.41;100.00;96935.78;5016819;28;20565;-62
2021/10/20 03:45:36;;;;;;;19.98;7.35;;;;;;;4.68;100.00;96933.84;5020241;28;20052;-62
2021/10/20 03:48:02;;;;;;;18.52;8.45;;;;;;;4.86;100.00;96929.97;5018840;28;20046;-62
2021/10/20 03:50:28;;;;;;;20.92;10.32;;;;;;;4.97;100.00;96939.34;5016630;28;20037;-60
2021/10/20 03:52:53;;;;;;;19.90;8.23;;;;;;;5.09;100.00;96938.66;5021541;28;20038;-59
2021/10/20 03:55:19;;;;;;;24.42;9.43;;;;;;;5.24;100.00;96934.63;5013936;28;20045;-60
2021/10/20 03:57:44;;;;;;;16.33;8.10;;;;;;;5.31;100.00;96925.97;5020985;28;20136;-59
2021/10/20 04:00:12;;;;;;;32.53;8.80;;;;;;;5.11;100.00;96919.34;5016602;28;20095;-61
2021/10/20 04:02:43;;;;;;;25.75;6.82;;;;;;;5.03;100.00;96928.34;5026658;28;20117;-62
2021/10/20 04:05:13;;;;;;;29.63;8.93;;;;;;;4.72;100.00;96923.94;5022187;28;20486;-62
2021/10/20 04:07:40;;;;;;;46.28;8.00;;;;;;;4.68;100.00;96920.25;5022469;28;20045;-63
2021/10/20 04:10:07;;;;;;;27.98;8.48;;;;;;;4.85;100.00;96908.59;5013173;28;20037;-61
2021/10/20 04:12:33;;;;;;;26.40;7.90;;;;;;;4.75;100.00;96899.69;5002043;28;20046;-63
2021/10/20 04:14:58;;;;;;;16.05;7.38;;;;;;;4.88;100.00;96897.06;5037357;28;20037;-61
2021/10/20 04:17:24;;;;;;;18.70;7.30;;;;;;;5.10;100.00;96904.19;5036845;28;20885;-62
2021/10/20 04:19:49;;;;;;;26.10;9.60;;;;;;;5.25;100.00;96900.91;5029981;28;20042;-63
2021/10/20 04:22:15;;;;;;;22.42;9.43;;;;;;;5.37;100.00;96902.94;4998269;28;20052;-62
2021/10/20 04:24:40;;;;;;;30.88;8.38;;;;;;;5.52;100.00;96899.66;4999924;28;20442;-62
2021/10/20 04:27:05;;;;;;;18.33;8.45;;;;;;;5.54;100.00;96893.88;5015359;28;20046;-59
2021/10/20 04:29:31;;;;;;;17.98;8.45;;;;;;;5.58;100.00;96899.47;5020244;28;20049;-62
2021/10/20 04:31:56;;;;;;;22.73;9.07;;;;;;;5.59;100.00;96899.13;5018914;28;20041;-61
2021/10/20 04:34:22;;;;;;;21.67;8.50;;;;;;;5.67;100.00;96902.91;5016298;28;20073;-61
2021/10/20 04:36:48;;;;;;;23.80;8.52;;;;;;;5.73;100.00;96901.63;5002534;28;20042;-60
2021/10/20 04:39:13;;;;;;;26.65;9.45;;;;;;;5.79;100.00;96900.28;5015205;28;20462;-60
2021/10/20 04:41:39;;;;;;;71.25;10.20;;;;;;;5.77;100.00;96899.03;5020576;28;20041;-60
2021/10/20 04:44:04;;;;;;;41.85;9.40;;;;;;;5.79;100.00;96894.06;5016057;28;20144;-62
2021/10/20 04:46:30;;;;;;;40.67;9.85;;;;;;;5.78;100.00;96897.91;5020858;28;20515;-61
2021/10/20 04:48:56;;;;;;;85.20;11.00;;;;;;;5.63;100.00;96896.56;5020634;28;20042;-61
2021/10/20 04:51:21;;;;;;;30.23;9.27;;;;;;;5.50;100.00;96885.59;5016145;28;20694;-62
2021/10/20 04:53:46;;;;;;;73.10;9.98;;;;;;;5.39;100.00;96891.75;5004001;28;20128;-62
2021/10/20 04:56:12;;;;;;;74.28;11.27;;;;;;;5.16;100.00;96883.88;5017764;28;20136;-65
2021/10/20 04:58:37;;;;;;;61.03;10.68;;;;;;;5.03;100.00;96876.75;5023407;28;20065;-61
2021/10/20 05:01:03;;;;;;;60.58;10.70;;;;;;;4.95;100.00;96873.75;5017479;28;20047;-61
2021/10/20 05:03:28;;;;;;;64.72;11.77;;;;;;;4.86;100.00;96873.00;5020443;28;20136;-61
2021/10/20 05:05:54;;;;;;;38.40;10.60;;;;;;;4.74;100.00;96870.94;5037529;28;20535;-63
2021/10/20 05:08:19;;;;;;;43.53;12.18;;;;;;;4.59;100.00;96869.56;5032883;28;20041;-63
2021/10/20 05:10:46;;;;;;;50.55;12.30;;;;;;;4.67;100.00;96869.84;5037795;28;20053;-64
2021/10/20 05:13:11;;;;;;;39.97;17.20;;;;;;;4.77;100.00;96870.31;5030834;28;20048;-62
2021/10/20 05:15:38;;;;;;;45.70;20.10;;;;;;;4.67;100.00;96861.72;5038362;28;20045;-61
2021/10/20 05:18:03;;;;;;;42.00;18.52;;;;;;;4.61;100.00;96863.81;5030471;28;20046;-63
2021/10/20 05:20:29;;;;;;;24.15;15.30;;;;;;;4.64;100.00;96862.34;5016263;28;20071;-63
2021/10/20 05:22:54;;;;;;;37.20;15.00;;;;;;;4.67;100.00;96864.44;5038174;28;20042;-61
2021/10/20 05:25:20;;;;;;;29.95;13.30;;;;;;;4.78;100.00;96861.03;5031104;28;20067;-62
2021/10/20 05:27:45;;;;;;;80.85;14.20;;;;;;;4.78;100.00;96858.31;5046652;28;20117;-61
2021/10/20 05:30:12;;;;;;;149.30;18.65;;;;;;;4.73;100.00;96863.91;5024304;28;20041;-60
2021/10/20 05:32:38;;;;;;;26.90;13.10;;;;;;;4.87;100.00;96861.00;5020726;28;20128;-61
2021/10/20 05:35:04;;;;;;;26.08;13.00;;;;;;;4.97;100.00;96857.94;5016998;28;20445;-61
2021/10/20 05:37:29;;;;;;;60.28;14.45;;;;;;;4.91;100.00;96853.00;5018608;28;20064;-61
2021/10/20 05:39:55;;;;;;;31.75;12.95;;;;;;;4.97;100.00;96846.28;5011318;28;20391;-62
2021/10/20 05:42:21;;;;;;;26.08;12.23;;;;;;;5.08;100.00;96852.94;5014407;28;20484;-61
2021/10/20 05:44:47;;;;;;;88.10;14.30;;;;;;;5.07;100.00;96862.19;5018390;28;20048;-62
2021/10/20 05:47:13;;;;;;;29.58;13.73;;;;;;;5.05;100.00;96852.78;5020572;28;20045;-61
2021/10/20 05:49:38;;;;;;;61.20;14.65;;;;;;;5.08;100.00;96849.44;5020173;28;20048;-58
2021/10/20 05:52:04;;;;;;;33.90;12.63;;;;;;;5.25;100.00;96854.75;5017044;28;20068;-61
2021/10/20 05:54:30;;;;;;;20.83;11.55;;;;;;;5.35;100.00;96854.38;5019942;28;20092;-61
2021/10/20 05:56:56;;;;;;;24.10;12.73;;;;;;;5.45;100.00;96847.75;5018004;28;20061;-59
2021/10/20 05:59:23;;;;;;;27.30;12.68;;;;;;;5.51;100.00;96860.03;4981321;28;20056;-59
2021/10/20 06:01:49;;;;;;;28.50;11.00;;;;;;;5.58;100.00;96847.84;5015932;28;20797;-61
2021/10/20 06:04:16;;;;;;;25.13;11.07;;;;;;;5.59;100.00;96844.00;5017543;28;20494;-61
2021/10/20 06:06:42;;;;;;;20.13;9.98;;;;;;;5.44;100.00;96851.63;5019167;28;20030;-61
2021/10/20 06:09:07;;;;;;;28.63;11.13;;;;;;;5.09;100.00;96845.56;5014249;28;20052;-61
2021/10/20 06:11:33;;;;;;;16.67;10.65;;;;;;;5.12;100.00;96855.78;5015492;28;20410;-58
2021/10/20 06:13:59;;;;;;;39.58;11.20;;;;;;;5.28;100.00;96861.47;5019199;28;20398;-61
2021/10/20 06:16:24;;;;;;;19.95;10.23;;;;;;;5.27;100.00;96859.84;5010494;28;20522;-59
2021/10/20 06:18:50;;;;;;;106.85;17.45;;;;;;;5.06;100.00;96865.22;5019809;28;20084;-61
2021/10/20 06:21:15;;;;;;;51.42;12.90;;;;;;;5.12;100.00;96861.22;5013637;28;20077;-60
2021/10/20 06:23:40;;;;;;;163.52;24.05;;;;;;;4.92;100.00;96855.38;5019834;28;20482;-62
2021/10/20 06:26:06;;;;;;;78.10;13.05;;;;;;;4.90;100.00;96852.22;5013038;28;20101;-60
2021/10/20 06:28:32;;;;;;;93.30;17.30;;;;;;;4.81;100.00;96854.16;5009326;28;20103;-60
2021/10/20 06:30:57;;;;;;;162.52;28.02;;;;;;;4.67;100.00;96857.06;5000537;28;20115;-60
2021/10/20 06:33:22;;;;;;;246.88;77.80;;;;;;;4.74;100.00;96853.88;5014058;28;20499;-57
2021/10/20 06:35:48;;;;;;;273.55;25.80;;;;;;;4.87;100.00;96855.56;5018334;28;20045;-60
2021/10/20 06:38:13;;;;;;;43.47;21.23;;;;;;;5.08;100.00;96861.06;5014364;28;20069;-61
2021/10/20 06:40:39;;;;;;;107.97;17.27;;;;;;;5.31;100.00;96860.78;5019243;28;20443;-61
2021/10/20 06:43:04;;;;;;;185.75;20.20;;;;;;;5.48;100.00;96865.34;5012316;28;20083;-62
2021/10/20 06:45:30;;;;;;;179.60;27.30;;;;;;;5.44;100.00;96861.66;5021501;28;20124;-60
2021/10/20 06:47:55;;;;;;;195.00;20.38;;;;;;;5.46;100.00;96862.16;5017994;28;20493;-61
2021/10/20 06:50:21;;;;;;;40.65;16.90;;;;;;;5.74;100.00;96871.41;5012441;28;20267;-62
2021/10/20 06:52:47;;;;;;;143.43;18.63;;;;;;;5.94;100.00;96867.09;5001231;28;20119;-59
2021/10/20 06:55:13;;;;;;;126.65;20.45;;;;;;;6.12;100.00;96862.34;5012767;28;20081;-57
2021/10/20 06:57:42;;;;;;;92.25;20.00;;;;;;;6.36;100.00;96865.47;5016201;28;20041;-59
2021/10/20 07:00:08;;;;;;;28.25;14.48;;;;;;;6.53;100.00;96870.72;5010217;28;20042;-59
2021/10/20 07:02:35;;;;;;;32.75;16.50;;;;;;;6.49;100.00;96880.72;5025564;28;20076;-60
2021/10/20 07:05:00;;;;;;;147.77;19.05;;;;;;;6.70;100.00;96873.28;5018918;28;20034;-61
2021/10/20 07:07:26;;;;;;;40.72;14.85;;;;;;;7.02;100.00;96870.84;5013477;28;20060;-61
2021/10/20 07:09:51;;;;;;;31.98;14.98;;;;;;;7.26;100.00;96872.78;5017618;28;20653;-59
2021/10/20 07:12:17;;;;;;;29.20;13.98;;;;;;;7.40;100.00;96872.44;5010902;28;20429;-62
2021/10/20 07:14:42;;;;;;;27.80;12.70;;;;;;;7.25;100.00;96873.91;4991939;28;20050;-59
2021/10/20 07:17:09;;;;;;;28.05;13.93;;;;;;;7.50;100.00;96873.91;5013385;28;20045;-61
2021/10/20 07:19:37;;;;;;;21.38;13.32;;;;;;;7.75;100.00;96882.84;5013118;28;20060;-60
2021/10/20 07:22:03;;;;;;;78.50;15.63;;;;;;;8.07;100.00;96890.38;4998832;28;20046;-62
2021/10/20 07:24:28;;;;;;;42.60;14.35;;;;;;;8.32;100.00;96888.34;5000909;28;20514;-58
2021/10/20 07:26:54;;;;;;;37.55;13.10;;;;;;;8.60;100.00;96886.44;5019173;28;20053;-60
2021/10/20 07:29:19;;;;;;;45.22;11.50;;;;;;;8.90;100.00;96890.75;5009724;28;20041;-59
2021/10/20 07:31:45;;;;;;;23.42;10.27;;;;;;;9.17;100.00;96892.59;5018392;28;20349;-60
2021/10/20 07:34:10;;;;;;;22.33;12.25;;;;;;;9.57;100.00;96883.41;5015877;28;20041;-59
2021/10/20 07:36:37;;;;;;;30.73;9.63;;;;;;;9.86;100.00;96883.25;5025726;28;20041;-58
2021/10/20 07:39:04;;;;;;;11.95;8.02;;;;;;;10.36;100.00;96891.75;5022892;28;20041;-62
2021/10/20 07:41:29;;;;;;;12.20;7.60;;;;;;;10.47;100.00;96888.06;5038894;28;20049;-59
2021/10/20 07:43:54;;;;;;;17.02;7.30;;;;;;;10.13;100.00;96879.53;5025359;28;20050;-59
2021/10/20 07:46:20;;;;;;;16.92;7.82;;;;;;;10.19;100.00;96882.81;5001007;28;20095;-59
2021/10/20 07:48:45;;;;;;;11.00;6.82;;;;;;;10.16;100.00;96889.00;5024469;28;20092;-61
2021/10/20 07:51:11;;;;;;;9.35;7.13;;;;;;;10.17;100.00;96884.28;5017582;28;20045;-58
2021/10/20 07:53:36;;;;;;;8.95;6.35;;;;;;;10.25;100.00;96884.09;5026561;28;20075;-61
2021/10/20 07:56:02;;;;;;;15.18;7.22;;;;;;;10.32;100.00;96876.06;5032153;28;21619;-61
2021/10/20 07:58:27;;;;;;;9.68;6.68;;;;;;;10.52;100.00;96882.31;5018989;28;20048;-59
2021/10/20 08:00:53;;;;;;;16.05;7.13;;;;;;;10.63;100.00;96879.78;5024925;28;20127;-60
2021/10/20 08:03:18;;;;;;;24.70;8.45;;;;;;;10.60;100.00;96885.19;5032236;28;20052;-60
2021/10/20 08:05:44;;;;;;;11.23;7.38;;;;;;;10.50;100.00;96887.34;5022485;28;20060;-60
2021/10/20 08:08:10;;;;;;;10.18;7.38;;;;;;;10.68;100.00;96873.22;5023917;28;20542;-61
2021/10/20 08:10:36;;;;;;;11.30;7.57;;;;;;;10.59;100.00;96878.94;5024176;28;20077;-60
2021/10/20 08:13:02;;;;;;;41.95;9.10;;;;;;;10.68;100.00;96878.69;5025933;28;20105;-61
2021/10/20 08:15:29;;;;;;;12.18;7.60;;;;;;;10.87;100.00;96873.16;5018849;28;20656;-58
2021/10/20 08:18:00;;;;;;;46.17;9.15;;;;;;;10.77;100.00;96867.50;5023775;28;20053;-59
2021/10/20 08:20:30;;;;;;;11.65;7.55;;;;;;;10.90;100.00;96877.13;5017268;28;20108;-57
2021/10/20 08:22:56;;;;;;;15.05;8.30;;;;;;;10.54;100.00;96864.72;5019698;28;20505;-59
2021/10/20 08:25:21;;;;;;;15.50;8.25;;;;;;;10.67;100.00;96868.88;5018319;28;20132;-61
2021/10/20 08:27:47;;;;;;;49.50;9.48;;;;;;;9.94;100.00;96861.16;5023168;28;20160;-58
2021/10/20 08:30:18;;;;;;;12.98;9.05;;;;;;;9.92;100.00;96844.31;5014511;28;20038;-58
2021/10/20 08:32:47;;;;;;;15.25;9.25;;;;;;;10.24;100.00;96854.34;5021417;28;20057;-60
2021/10/20 08:35:15;;;;;;;32.25;10.05;;;;;;;10.27;100.00;96840.72;5008654;28;20046;-57
2021/10/20 08:37:43;;;;;;;14.60;9.90;;;;;;;10.86;100.00;96846.16;5020062;28;20037;-61
2021/10/20 08:40:10;;;;;;;15.18;9.07;;;;;;;11.77;100.00;96849.91;5016815;28;20030;-62
2021/10/20 08:42:36;;;;;;;22.38;9.75;;;;;;;11.46;100.00;96840.84;5022351;28;20037;-62
2021/10/20 08:45:02;;;;;;;15.38;10.02;;;;;;;11.10;100.00;96842.25;5019393;28;20081;-64
2021/10/20 08:47:29;;;;;;;24.05;10.65;;;;;;;10.95;100.00;96840.41;5019630;28;20087;-57
2021/10/20 08:49:55;;;;;;;19.30;11.70;;;;;;;11.00;100.00;96829.13;5019835;28;20072;-56
2021/10/20 08:52:21;;;;;;;15.23;10.27;;;;;;;11.32;100.00;96826.91;4996244;28;20041;-58
2021/10/20 08:54:47;;;;;;;16.80;9.90;;;;;;;12.36;100.00;96816.56;5020786;28;20049;-60
2021/10/20 08:57:12;;;;;;;15.45;10.27;;;;;;;13.37;95.89;96815.53;5012226;28;20046;-59
2021/10/20 08:59:38;;;;;;;14.10;8.80;;;;;;;14.28;89.85;96799.13;5020146;28;20037;-57
2021/10/20 09:02:04;;;;;;;12.27;8.52;;;;;;;15.02;84.45;96798.91;5023246;28;20050;-61
2021/10/20 09:04:32;;;;;;;10.30;7.60;;;;;;;15.77;83.11;96792.53;5021021;28;20037;-59
2021/10/20 09:07:02;;;;;;;11.18;8.15;;;;;;;15.99;78.60;96787.72;5020266;28;20042;-58
2021/10/20 09:09:34;;;;;;;10.35;7.38;;;;;;;15.79;78.34;96790.16;4994223;28;20042;-59
2021/10/20 09:12:00;;;;;;;10.52;7.25;;;;;;;16.78;75.24;96792.84;5021200;28;20065;-59
2021/10/20 09:14:25;;;;;;;9.60;6.63;;;;;;;17.67;69.61;96779.50;5015340;28;20158;-59
2021/10/20 09:16:51;;;;;;;13.25;7.07;;;;;;;18.20;66.34;96780.88;5019863;28;20037;-59
2021/10/20 09:19:18;;;;;;;12.38;5.70;;;;;;;19.31;61.98;96786.84;5015999;28;20148;-59
2021/10/20 09:21:54;;;;;;;7.22;5.05;;;;;;;18.94;60.86;96788.59;5023246;28;20042;-57
2021/10/20 09:24:27;;;;;;;8.57;5.13;;;;;;;19.74;58.76;96783.31;5017798;28;20126;-55
2021/10/20 09:26:57;;;;;;;10.50;5.35;;;;;;;19.32;57.54;96788.41;5019917;28;20487;-55
2021/10/20 09:29:26;;;;;;;7.88;5.25;;;;;;;19.04;58.44;96779.31;4997009;28;20049;-57
2021/10/20 09:31:52;;;;;;;7.63;4.97;;;;;;;19.19;59.21;96779.88;5001426;28;20048;-60
2021/10/20 09:34:18;;;;;;;7.35;5.10;;;;;;;19.83;57.45;96778.00;5011361;28;20151;-60
2021/10/20 09:36:44;;;;;;;11.52;4.97;;;;;;;21.03;52.84;96770.69;5018967;28;20100;-59
2021/10/20 09:39:10;;;;;;;7.25;4.40;;;;;;;20.91;50.78;96774.97;4994317;28;20049;-60
2021/10/20 09:41:36;;;;;;;8.32;5.40;;;;;;;21.45;51.20;96754.97;5018505;28;20498;-60
2021/10/20 09:44:02;;;;;;;8.68;3.97;;;;;;;21.05;50.90;96759.91;5016952;28;20052;-60
2021/10/20 09:46:35;;;;;;;8.55;4.60;;;;;;;21.34;51.58;96762.78;5016276;28;20049;-61
2021/10/20 09:49:21;;;;;;;8.77;5.18;;;;;;;20.64;54.39;96750.94;5020109;28;20052;-58
2021/10/20 09:51:47;;;;;;;7.93;5.30;;;;;;;21.26;52.81;96758.59;5020124;28;20186;-60
2021/10/20 09:54:29;;;;;;;9.52;5.22;;;;;;;21.19;52.04;96748.41;5015116;28;20113;-59
2021/10/20 09:56:59;;;;;;;8.48;4.93;;;;;;;20.21;54.47;96744.28;5021178;28;20049;-58
2021/10/20 09:59:25;;;;;;;8.30;5.15;;;;;;;20.40;55.77;96744.66;5015199;28;20431;-58
2021/10/20 10:01:51;;;;;;;8.73;5.53;;;;;;;20.78;53.98;96733.13;5004910;28;20462;-59
2021/10/20 10:04:17;;;;;;;11.02;5.05;;;;;;;20.18;54.89;96727.66;4995095;28;20076;-57
2021/10/20 10:06:44;;;;;;;10.02;5.30;;;;;;;18.91;59.42;96726.41;5000384;28;20088;-60
2021/10/20 10:09:10;;;;;;;9.40;5.93;;;;;;;19.52;58.53;96723.78;4993780;28;20089;-61
2021/10/20 10:11:39;;;;;;;7.30;5.15;;;;;;;18.81;59.24;96723.78;5001320;28;20106;-60
2021/10/20 10:14:05;;;;;;;9.57;5.75;;;;;;;19.33;59.30;96714.22;5016553;28;20128;-62
2021/10/20 10:16:33;;;;;;;8.98;5.80;;;;;;;19.06;60.13;96718.63;5039680;28;20049;-57
2021/10/20 10:19:00;;;;;;;11.52;6.53;;;;;;;19.17;61.21;96709.34;5030197;28;20099;-61
2021/10/20 10:21:43;;;;;;;10.60;6.95;;;;;;;18.57;63.43;96709.88;5011528;28;20041;-60
2021/10/20 10:24:18;;;;;;;11.15;8.02;;;;;;;18.23;65.25;96699.66;5012152;28;20110;-60
2021/10/20 10:27:14;;;;;;;15.90;7.43;;;;;;;17.30;69.78;96689.66;5002322;28;20045;-60
2021/10/20 10:29:53;;;;;;;16.58;8.55;;;;;;;17.21;70.92;96687.38;4996003;28;20108;-59
2021/10/20 10:32:20;;;;;;;13.68;8.07;;;;;;;17.14;72.61;96684.69;5011756;28;20056;-61
2021/10/20 10:34:47;;;;;;;17.42;9.15;;;;;;;17.09;72.82;96683.16;5019644;28;20712;-61
2021/10/20 10:37:33;;;;;;;15.80;9.35;;;;;;;16.65;76.46;96690.22;5014263;28;20038;-60
2021/10/20 10:40:31;;;;;;;10.70;8.00;;;;;;;16.80;73.91;96683.41;5009140;28;20042;-59
2021/10/20 10:43:03;;;;;;;13.55;8.18;;;;;;;16.33;76.06;96671.09;4987866;28;20072;-60
2021/10/20 10:45:29;;;;;;;13.48;8.30;;;;;;;16.35;77.37;96671.47;4985520;28;20042;-59
2021/10/20 10:48:06;;;;;;;12.40;8.48;;;;;;;16.17;78.48;96671.59;5001053;28;20124;-58
2021/10/20 10:50:48;;;;;;;16.80;11.55;;;;;;;16.36;77.71;96673.84;5000020;28;20073;-59
2021/10/20 10:53:32;;;;;;;11.90;7.60;;;;;;;16.73;76.35;96666.09;5007175;28;20050;-59
2021/10/20 10:56:09;;;;;;;12.43;8.50;;;;;;;16.99;76.59;96659.16;5017622;28;20131;-59
2021/10/20 10:58:56;;;;;;;12.38;7.85;;;;;;;17.13;75.02;96664.53;5001874;28;20030;-59
2021/10/20 11:01:44;;;;;;;12.73;8.77;;;;;;;17.13;76.13;96656.25;5014587;28;20117;-60
2021/10/20 11:04:45;;;;;;;11.77;7.50;;;;;;;17.64;73.87;96656.47;5012209;28;20037;-64
2021/10/20 11:07:11;;;;;;;10.32;7.38;;;;;;;17.80;72.76;96663.41;4951504;28;20039;-62
2021/10/20 11:09:36;;;;;;;13.52;7.70;;;;;;;18.00;72.82;96655.25;5009319;28;20128;-63
2021/10/20 11:12:04;;;;;;;11.13;6.15;;;;;;;18.27;71.09;96649.72;5022056;28;20516;-61
2021/10/20 11:14:31;;;;;;;10.65;6.15;;;;;;;18.39;70.04;96638.03;5021833;28;20045;-59
2021/10/20 11:16:59;;;;;;;7.25;4.95;;;;;;;18.53;69.46;96642.59;5023604;28;20041;-62
2021/10/20 11:19:25;;;;;;;9.35;5.45;;;;;;;18.36;69.30;96633.31;5016087;28;20470;-61
2021/10/20 11:21:51;;;;;;;17.50;9.85;;;;;;;18.08;71.40;96643.66;5022230;28;20042;-60
2021/10/20 11:24:17;;;;;;;12.05;6.95;;;;;;;17.66;72.23;96636.66;5018044;28;20532;-63